sensor_id;sensor_type;location;lat;lon;timestamp;temperature;humidity
10512;DHT22;5304;48.604;2.096;2023-07-31T03:58:27;17.40;99.90
10512;DHT22;5304;48.604;2.096;2023-07-31T04:01:11;17.50;99.90
10512;DHT22;5304;48.604;2.096;2023-07-31T04:03:56;17.50;99.90
10512;DHT22;5304;48.604;2.096;2023-07-31T04:06:40;17.50;99.90
10512;DHT22;5304;48.604;2.096;2023-07-31T04:09:25;17.40;99.90
10512;DHT22;5304;48.604;2.096;2023-07-31T04:12:09;17.40;99.90
10512;DHT22;5304;48.604;2.096;2023-07-31T04:14:53;17.50;99.90
10512;DHT22;5304;48.604;2.096;2023-07-31T04:17:38;17.50;99.90
10512;DHT22;5304;48.604;2.096;2023-07-31T04:20:22;17.60;99.90
10512;DHT22;5304;48.604;2.096;2023-07-31T04:23:06;17.50;99.90
10512;DHT22;5304;48.604;2.096;2023-07-31T04:25:51;17.40;99.90
10512;DHT22;5304;48.604;2.096;2023-07-31T04:28:35;17.50;99.90
10512;DHT22;5304;48.604;2.096;2023-07-31T04:31:19;17.40;99.90
10512;DHT22;5304;48.604;2.096;2023-07-31T04:34:04;17.40;99.90
10512;DHT22;5304;48.604;2.096;2023-07-31T04:36:50;17.40;99.90
10512;DHT22;5304;48.604;2.096;2023-07-31T04:39:34;17.40;99.90
10512;DHT22;5304;48.604;2.096;2023-07-31T04:42:18;17.30;99.90
10512;DHT22;5304;48.604;2.096;2023-07-31T04:45:03;17.10;99.90
10512;DHT22;5304;48.604;2.096;2023-07-31T04:47:47;17.00;99.90
10512;DHT22;5304;48.604;2.096;2023-07-31T04:50:31;16.90;99.90
10512;DHT22;5304;48.604;2.096;2023-07-31T04:53:16;16.90;99.90
10512;DHT22;5304;48.604;2.096;2023-07-31T04:56:00;16.80;99.90
10512;DHT22;5304;48.604;2.096;2023-07-31T04:58:44;16.70;99.90
10512;DHT22;5304;48.604;2.096;2023-07-31T05:01:28;16.80;99.90
10512;DHT22;5304;48.604;2.096;2023-07-31T05:04:13;16.80;99.90
10512;DHT22;5304;48.604;2.096;2023-07-31T05:06:58;16.80;99.90
10512;DHT22;5304;48.604;2.096;2023-07-31T05:09:43;16.80;99.90
10512;DHT22;5304;48.604;2.096;2023-07-31T05:12:27;16.80;99.90
10512;DHT22;5304;48.604;2.096;2023-07-31T05:15:11;16.90;99.90
10512;DHT22;5304;48.604;2.096;2023-07-31T05:17:56;16.90;99.90
10512;DHT22;5304;48.604;2.096;2023-07-31T05:20:40;16.80;99.90
10512;DHT22;5304;48.604;2.096;2023-07-31T05:23:24;16.90;99.90
10512;DHT22;5304;48.604;2.096;2023-07-31T05:26:09;16.90;99.90
10512;DHT22;5304;48.604;2.096;2023-07-31T05:28:57;16.90;99.90
10512;DHT22;5304;48.604;2.096;2023-07-31T05:31:42;16.90;99.90
10512;DHT22;5304;48.604;2.096;2023-07-31T05:34:27;16.90;99.90
10512;DHT22;5304;48.604;2.096;2023-07-31T05:37:11;16.90;99.90
10512;DHT22;5304;48.604;2.096;2023-07-31T05:39:56;16.90;99.90
10512;DHT22;5304;48.604;2.096;2023-07-31T05:42:40;17.00;99.90
10512;DHT22;5304;48.604;2.096;2023-07-31T05:45:25;17.10;99.90
10512;DHT22;5304;48.604;2.096;2023-07-31T05:48:09;17.00;99.90
10512;DHT22;5304;48.604;2.096;2023-07-31T05:50:54;17.00;99.90
10512;DHT22;5304;48.604;2.096;2023-07-31T05:53:38;17.10;99.90
10512;DHT22;5304;48.604;2.096;2023-07-31T05:56:24;17.10;99.90
10512;DHT22;5304;48.604;2.096;2023-07-31T05:59:09;17.10;99.90
10512;DHT22;5304;48.604;2.096;2023-07-31T06:01:54;17.10;99.90
10512;DHT22;5304;48.604;2.096;2023-07-31T06:04:38;17.10;99.90
10512;DHT22;5304;48.604;2.096;2023-07-31T06:07:22;17.10;99.90
10512;DHT22;5304;48.604;2.096;2023-07-31T06:10:07;17.10;99.90
10512;DHT22;5304;48.604;2.096;2023-07-31T06:12:52;17.20;99.90
10512;DHT22;5304;48.604;2.096;2023-07-31T06:15:37;17.20;99.90
10512;DHT22;5304;48.604;2.096;2023-07-31T06:18:21;17.30;99.90
10512;DHT22;5304;48.604;2.096;2023-07-31T06:21:05;17.40;99.90
10512;DHT22;5304;48.604;2.096;2023-07-31T06:23:50;17.40;99.90
10512;DHT22;5304;48.604;2.096;2023-07-31T06:26:35;17.40;99.90
10512;DHT22;5304;48.604;2.096;2023-07-31T06:29:19;17.50;99.90
10512;DHT22;5304;48.604;2.096;2023-07-31T06:32:03;17.40;99.90
10512;DHT22;5304;48.604;2.096;2023-07-31T06:34:48;17.50;99.90
10512;DHT22;5304;48.604;2.096;2023-07-31T06:37:32;17.40;99.90
10512;DHT22;5304;48.604;2.096;2023-07-31T06:40:16;17.40;99.90
10512;DHT22;5304;48.604;2.096;2023-07-31T06:43:01;17.50;99.90
10512;DHT22;5304;48.604;2.096;2023-07-31T06:45:51;17.60;99.90
10512;DHT22;5304;48.604;2.096;2023-07-31T06:48:35;17.60;99.90
10512;DHT22;5304;48.604;2.096;2023-07-31T06:51:21;17.70;99.90
10512;DHT22;5304;48.604;2.096;2023-07-31T06:54:08;17.70;99.90
10512;DHT22;5304;48.604;2.096;2023-07-31T06:56:52;17.80;99.90
10512;DHT22;5304;48.604;2.096;2023-07-31T06:59:36;17.90;99.90
10512;DHT22;5304;48.604;2.096;2023-07-31T07:02:21;18.00;99.90
10512;DHT22;5304;48.604;2.096;2023-07-31T07:05:06;18.10;99.90
10512;DHT22;5304;48.604;2.096;2023-07-31T07:07:51;18.20;99.90
10512;DHT22;5304;48.604;2.096;2023-07-31T07:10:37;18.20;99.90
10512;DHT22;5304;48.604;2.096;2023-07-31T07:13:21;18.30;99.90
10512;DHT22;5304;48.604;2.096;2023-07-31T07:16:06;18.30;99.90
10512;DHT22;5304;48.604;2.096;2023-07-31T07:18:50;18.30;99.90
10512;DHT22;5304;48.604;2.096;2023-07-31T07:21:35;18.30;99.90
10512;DHT22;5304;48.604;2.096;2023-07-31T07:24:19;18.30;99.90
10512;DHT22;5304;48.604;2.096;2023-07-31T07:27:04;18.30;99.90
10512;DHT22;5304;48.604;2.096;2023-07-31T07:29:50;18.20;99.90
10512;DHT22;5304;48.604;2.096;2023-07-31T07:32:37;18.20;99.90
10512;DHT22;5304;48.604;2.096;2023-07-31T07:35:22;18.30;99.90
10512;DHT22;5304;48.604;2.096;2023-07-31T07:38:06;18.40;99.90
10512;DHT22;5304;48.604;2.096;2023-07-31T07:40:51;18.40;99.90
10512;DHT22;5304;48.604;2.096;2023-07-31T07:43:37;18.40;99.90
10512;DHT22;5304;48.604;2.096;2023-07-31T07:46:21;18.60;99.90
10512;DHT22;5304;48.604;2.096;2023-07-31T07:49:06;18.70;99.90
10512;DHT22;5304;48.604;2.096;2023-07-31T07:51:50;18.80;99.90
10512;DHT22;5304;48.604;2.096;2023-07-31T07:54:35;18.80;99.90
10512;DHT22;5304;48.604;2.096;2023-07-31T07:57:19;18.80;99.90
10512;DHT22;5304;48.604;2.096;2023-07-31T08:00:04;18.90;99.90
10512;DHT22;5304;48.604;2.096;2023-07-31T08:02:48;18.90;99.90
10512;DHT22;5304;48.604;2.096;2023-07-31T08:05:33;19.00;99.90
10512;DHT22;5304;48.604;2.096;2023-07-31T08:08:18;19.30;99.90
10512;DHT22;5304;48.604;2.096;2023-07-31T08:11:03;19.30;99.90
10512;DHT22;5304;48.604;2.096;2023-07-31T08:13:48;19.50;99.90
10512;DHT22;5304;48.604;2.096;2023-07-31T08:16:32;19.60;99.90
10512;DHT22;5304;48.604;2.096;2023-07-31T08:19:16;19.50;99.90
10512;DHT22;5304;48.604;2.096;2023-07-31T08:22:00;19.30;99.90
10512;DHT22;5304;48.604;2.096;2023-07-31T08:24:45;19.10;99.90
10512;DHT22;5304;48.604;2.096;2023-07-31T08:27:29;19.00;99.90
10512;DHT22;5304;48.604;2.096;2023-07-31T08:30:13;19.10;99.90
10512;DHT22;5304;48.604;2.096;2023-07-31T08:32:58;19.10;99.90
10512;DHT22;5304;48.604;2.096;2023-07-31T08:35:42;19.10;99.90
10512;DHT22;5304;48.604;2.096;2023-07-31T08:38:26;19.10;99.90
10512;DHT22;5304;48.604;2.096;2023-07-31T08:41:11;19.10;99.90
10512;DHT22;5304;48.604;2.096;2023-07-31T08:43:57;19.10;99.90
10512;DHT22;5304;48.604;2.096;2023-07-31T08:46:42;18.90;99.90
10512;DHT22;5304;48.604;2.096;2023-07-31T08:49:27;18.70;99.90
10512;DHT22;5304;48.604;2.096;2023-07-31T08:52:12;18.70;99.90
10512;DHT22;5304;48.604;2.096;2023-07-31T08:54:57;18.70;99.90
10512;DHT22;5304;48.604;2.096;2023-07-31T08:57:42;18.70;99.90
10512;DHT22;5304;48.604;2.096;2023-07-31T09:00:27;18.80;99.90
10512;DHT22;5304;48.604;2.096;2023-07-31T09:03:17;18.80;99.90
10512;DHT22;5304;48.604;2.096;2023-07-31T09:06:02;18.80;99.90
10512;DHT22;5304;48.604;2.096;2023-07-31T09:08:48;18.70;99.90
10512;DHT22;5304;48.604;2.096;2023-07-31T09:11:33;18.80;99.90
10512;DHT22;5304;48.604;2.096;2023-07-31T09:14:17;18.80;99.90
10512;DHT22;5304;48.604;2.096;2023-07-31T09:17:02;18.80;99.90
10512;DHT22;5304;48.604;2.096;2023-07-31T09:19:46;18.90;99.90
10512;DHT22;5304;48.604;2.096;2023-07-31T09:22:32;18.90;99.90
10512;DHT22;5304;48.604;2.096;2023-07-31T09:25:22;18.90;99.90
10512;DHT22;5304;48.604;2.096;2023-07-31T09:28:08;18.90;99.90
10512;DHT22;5304;48.604;2.096;2023-07-31T09:30:53;18.90;99.90
10512;DHT22;5304;48.604;2.096;2023-07-31T09:33:54;18.90;99.90
10512;DHT22;5304;48.604;2.096;2023-07-31T09:36:51;19.00;99.90
10512;DHT22;5304;48.604;2.096;2023-07-31T09:39:47;19.00;99.90
10512;DHT22;5304;48.604;2.096;2023-07-31T09:42:34;19.10;99.90
10512;DHT22;5304;48.604;2.096;2023-07-31T09:45:19;19.20;99.90
10512;DHT22;5304;48.604;2.096;2023-07-31T09:48:10;19.30;99.90
10512;DHT22;5304;48.604;2.096;2023-07-31T09:50:55;19.30;99.90
10512;DHT22;5304;48.604;2.096;2023-07-31T09:53:39;19.40;99.90
10512;DHT22;5304;48.604;2.096;2023-07-31T09:56:24;19.50;99.90
10512;DHT22;5304;48.604;2.096;2023-07-31T09:59:17;19.60;99.90
10512;DHT22;5304;48.604;2.096;2023-07-31T10:02:02;19.60;99.90
10512;DHT22;5304;48.604;2.096;2023-07-31T10:04:49;19.60;99.90
10512;DHT22;5304;48.604;2.096;2023-07-31T10:07:45;19.90;99.90
10512;DHT22;5304;48.604;2.096;2023-07-31T10:10:38;20.00;99.90
10512;DHT22;5304;48.604;2.096;2023-07-31T10:13:25;20.00;99.90
10512;DHT22;5304;48.604;2.096;2023-07-31T10:16:12;19.90;99.90
10512;DHT22;5304;48.604;2.096;2023-07-31T10:18:58;19.90;99.90
10512;DHT22;5304;48.604;2.096;2023-07-31T10:21:43;20.20;99.90
10512;DHT22;5304;48.604;2.096;2023-07-31T10:24:29;20.40;99.90
10512;DHT22;5304;48.604;2.096;2023-07-31T10:27:14;20.40;99.90
10512;DHT22;5304;48.604;2.096;2023-07-31T10:29:59;20.40;99.90
10512;DHT22;5304;48.604;2.096;2023-07-31T10:32:45;20.50;99.90
10512;DHT22;5304;48.604;2.096;2023-07-31T10:35:31;20.70;99.90
10512;DHT22;5304;48.604;2.096;2023-07-31T10:38:15;20.70;99.90
10512;DHT22;5304;48.604;2.096;2023-07-31T10:41:11;20.60;99.90
10512;DHT22;5304;48.604;2.096;2023-07-31T10:43:58;20.30;99.90
10512;DHT22;5304;48.604;2.096;2023-07-31T10:46:45;20.10;99.90
10512;DHT22;5304;48.604;2.096;2023-07-31T10:49:29;20.10;99.90
10512;DHT22;5304;48.604;2.096;2023-07-31T10:52:20;20.20;99.90
10512;DHT22;5304;48.604;2.096;2023-07-31T10:55:38;20.30;99.90
10512;DHT22;5304;48.604;2.096;2023-07-31T10:58:22;20.30;99.90
10512;DHT22;5304;48.604;2.096;2023-07-31T11:01:06;20.20;99.90
10512;DHT22;5304;48.604;2.096;2023-07-31T11:03:50;20.20;99.90
10512;DHT22;5304;48.604;2.096;2023-07-31T11:06:37;20.30;99.90
10512;DHT22;5304;48.604;2.096;2023-07-31T11:09:22;20.40;99.90
10512;DHT22;5304;48.604;2.096;2023-07-31T11:12:06;20.50;99.90
10512;DHT22;5304;48.604;2.096;2023-07-31T11:14:56;20.60;99.90
10512;DHT22;5304;48.604;2.096;2023-07-31T11:17:40;20.60;99.90
10512;DHT22;5304;48.604;2.096;2023-07-31T11:20:25;20.60;99.90
10512;DHT22;5304;48.604;2.096;2023-07-31T11:23:10;20.60;99.90
10512;DHT22;5304;48.604;2.096;2023-07-31T11:25:59;20.60;99.90
10512;DHT22;5304;48.604;2.096;2023-07-31T11:28:46;20.50;99.90
10512;DHT22;5304;48.604;2.096;2023-07-31T11:31:31;20.70;99.90
10512;DHT22;5304;48.604;2.096;2023-07-31T11:34:15;21.00;99.90
10512;DHT22;5304;48.604;2.096;2023-07-31T11:37:01;21.20;99.90
10512;DHT22;5304;48.604;2.096;2023-07-31T11:39:59;21.50;99.90
10512;DHT22;5304;48.604;2.096;2023-07-31T11:42:43;21.80;99.90
10512;DHT22;5304;48.604;2.096;2023-07-31T11:45:28;21.80;99.90
10512;DHT22;5304;48.604;2.096;2023-07-31T11:48:28;21.80;99.90
10512;DHT22;5304;48.604;2.096;2023-07-31T11:51:13;21.70;99.90
10512;DHT22;5304;48.604;2.096;2023-07-31T11:54:00;21.70;99.90
10512;DHT22;5304;48.604;2.096;2023-07-31T11:56:45;21.60;99.90
10512;DHT22;5304;48.604;2.096;2023-07-31T11:59:30;21.50;99.90
10512;DHT22;5304;48.604;2.096;2023-07-31T12:02:14;21.40;99.90
10512;DHT22;5304;48.604;2.096;2023-07-31T12:04:58;21.20;99.90
10512;DHT22;5304;48.604;2.096;2023-07-31T12:07:47;21.10;99.90
10512;DHT22;5304;48.604;2.096;2023-07-31T12:10:32;21.00;99.90
10512;DHT22;5304;48.604;2.096;2023-07-31T12:13:24;21.00;99.90
10512;DHT22;5304;48.604;2.096;2023-07-31T12:16:12;21.00;99.90
10512;DHT22;5304;48.604;2.096;2023-07-31T12:18:57;20.90;99.90
10512;DHT22;5304;48.604;2.096;2023-07-31T12:21:41;20.90;99.90
10512;DHT22;5304;48.604;2.096;2023-07-31T12:24:26;21.00;99.90
10512;DHT22;5304;48.604;2.096;2023-07-31T12:27:12;21.10;99.90
10512;DHT22;5304;48.604;2.096;2023-07-31T12:29:56;21.10;99.90
10512;DHT22;5304;48.604;2.096;2023-07-31T12:32:41;21.10;99.90
10512;DHT22;5304;48.604;2.096;2023-07-31T12:35:30;21.20;99.90
10512;DHT22;5304;48.604;2.096;2023-07-31T12:38:18;21.10;99.90
10512;DHT22;5304;48.604;2.096;2023-07-31T12:41:02;21.00;99.90
10512;DHT22;5304;48.604;2.096;2023-07-31T12:43:46;21.00;99.90
10512;DHT22;5304;48.604;2.096;2023-07-31T12:46:31;21.00;99.90
10512;DHT22;5304;48.604;2.096;2023-07-31T12:49:15;21.00;99.90
10512;DHT22;5304;48.604;2.096;2023-07-31T12:51:59;20.90;99.90
10512;DHT22;5304;48.604;2.096;2023-07-31T12:54:43;20.90;99.90
10512;DHT22;5304;48.604;2.096;2023-07-31T12:57:27;20.90;99.90
10512;DHT22;5304;48.604;2.096;2023-07-31T13:00:12;21.10;99.90
10512;DHT22;5304;48.604;2.096;2023-07-31T13:02:57;21.40;99.90
10512;DHT22;5304;48.604;2.096;2023-07-31T13:05:41;21.70;99.90
10512;DHT22;5304;48.604;2.096;2023-07-31T13:08:26;22.10;99.90
10512;DHT22;5304;48.604;2.096;2023-07-31T13:11:10;22.60;99.90
10512;DHT22;5304;48.604;2.096;2023-07-31T13:13:54;23.00;99.90
10512;DHT22;5304;48.604;2.096;2023-07-31T13:16:38;23.00;99.90
10512;DHT22;5304;48.604;2.096;2023-07-31T13:19:23;23.10;99.90
10512;DHT22;5304;48.604;2.096;2023-07-31T13:22:07;22.90;99.90
10512;DHT22;5304;48.604;2.096;2023-07-31T13:24:52;22.70;99.90
10512;DHT22;5304;48.604;2.096;2023-07-31T13:27:36;22.50;99.90
10512;DHT22;5304;48.604;2.096;2023-07-31T13:30:20;22.40;99.90
10512;DHT22;5304;48.604;2.096;2023-07-31T13:33:05;22.30;99.90
10512;DHT22;5304;48.604;2.096;2023-07-31T13:35:49;22.20;99.90
10512;DHT22;5304;48.604;2.096;2023-07-31T13:38:34;22.20;99.90
10512;DHT22;5304;48.604;2.096;2023-07-31T13:41:18;22.30;99.90
10512;DHT22;5304;48.604;2.096;2023-07-31T13:44:02;22.60;99.90
10512;DHT22;5304;48.604;2.096;2023-07-31T13:46:46;22.60;99.90
10512;DHT22;5304;48.604;2.096;2023-07-31T13:49:31;22.50;99.90
10512;DHT22;5304;48.604;2.096;2023-07-31T13:52:16;22.40;99.90
10512;DHT22;5304;48.604;2.096;2023-07-31T13:55:00;22.30;99.90
10512;DHT22;5304;48.604;2.096;2023-07-31T13:57:44;22.20;99.90
10512;DHT22;5304;48.604;2.096;2023-07-31T14:00:28;22.20;99.90
10512;DHT22;5304;48.604;2.096;2023-07-31T14:03:13;22.20;99.90
10512;DHT22;5304;48.604;2.096;2023-07-31T14:05:58;22.30;99.90
10512;DHT22;5304;48.604;2.096;2023-07-31T14:08:42;22.30;99.90
10512;DHT22;5304;48.604;2.096;2023-07-31T14:11:27;22.30;99.90
10512;DHT22;5304;48.604;2.096;2023-07-31T14:14:11;22.40;99.90
10512;DHT22;5304;48.604;2.096;2023-07-31T14:16:56;22.40;99.90
10512;DHT22;5304;48.604;2.096;2023-07-31T14:19:41;22.50;99.90
10512;DHT22;5304;48.604;2.096;2023-07-31T14:22:29;22.50;99.90
10512;DHT22;5304;48.604;2.096;2023-07-31T14:25:13;22.60;99.90
10512;DHT22;5304;48.604;2.096;2023-07-31T14:27:58;22.50;99.90
10512;DHT22;5304;48.604;2.096;2023-07-31T14:30:42;22.40;99.90
10512;DHT22;5304;48.604;2.096;2023-07-31T14:33:27;22.30;99.90
10512;DHT22;5304;48.604;2.096;2023-07-31T14:36:11;22.30;99.90
10512;DHT22;5304;48.604;2.096;2023-07-31T14:38:55;22.30;99.90
10512;DHT22;5304;48.604;2.096;2023-07-31T14:41:39;22.30;99.90
10512;DHT22;5304;48.604;2.096;2023-07-31T14:44:24;22.30;99.90
10512;DHT22;5304;48.604;2.096;2023-07-31T14:47:08;22.30;99.90
10512;DHT22;5304;48.604;2.096;2023-07-31T14:49:52;22.20;99.90
10512;DHT22;5304;48.604;2.096;2023-07-31T14:52:37;22.20;99.90
10512;DHT22;5304;48.604;2.096;2023-07-31T14:55:21;22.30;99.90
10512;DHT22;5304;48.604;2.096;2023-07-31T14:58:05;22.50;99.90
10512;DHT22;5304;48.604;2.096;2023-07-31T15:00:50;22.60;99.90
10512;DHT22;5304;48.604;2.096;2023-07-31T15:03:34;22.50;99.90
10512;DHT22;5304;48.604;2.096;2023-07-31T15:06:18;22.50;99.90
10512;DHT22;5304;48.604;2.096;2023-07-31T15:09:03;22.50;99.90
10512;DHT22;5304;48.604;2.096;2023-07-31T15:11:47;22.20;99.90
10512;DHT22;5304;48.604;2.096;2023-07-31T15:14:31;22.00;99.90
10512;DHT22;5304;48.604;2.096;2023-07-31T15:17:16;21.80;99.90
10512;DHT22;5304;48.604;2.096;2023-07-31T15:20:00;21.70;99.90
10512;DHT22;5304;48.604;2.096;2023-07-31T15:22:44;21.60;99.90
10512;DHT22;5304;48.604;2.096;2023-07-31T15:25:29;21.50;99.90
10512;DHT22;5304;48.604;2.096;2023-07-31T15:28:13;21.30;99.90
10512;DHT22;5304;48.604;2.096;2023-07-31T15:30:57;21.00;99.90
10512;DHT22;5304;48.604;2.096;2023-07-31T15:33:42;20.90;99.90
10512;DHT22;5304;48.604;2.096;2023-07-31T15:36:26;20.80;99.90
10512;DHT22;5304;48.604;2.096;2023-07-31T15:39:10;20.70;99.90
10512;DHT22;5304;48.604;2.096;2023-07-31T15:41:55;20.60;99.90
10512;DHT22;5304;48.604;2.096;2023-07-31T15:44:39;20.40;99.90
10512;DHT22;5304;48.604;2.096;2023-07-31T15:47:23;20.30;99.90
10512;DHT22;5304;48.604;2.096;2023-07-31T15:50:08;20.20;99.90
10512;DHT22;5304;48.604;2.096;2023-07-31T15:52:52;20.20;99.90
10512;DHT22;5304;48.604;2.096;2023-07-31T15:55:37;20.10;99.90
10512;DHT22;5304;48.604;2.096;2023-07-31T15:58:21;20.00;99.90
10512;DHT22;5304;48.604;2.096;2023-07-31T16:01:05;20.00;99.90
10512;DHT22;5304;48.604;2.096;2023-07-31T16:03:50;20.10;99.90
10512;DHT22;5304;48.604;2.096;2023-07-31T16:06:36;20.10;99.90
10512;DHT22;5304;48.604;2.096;2023-07-31T16:09:20;20.20;99.90
10512;DHT22;5304;48.604;2.096;2023-07-31T16:12:04;20.30;99.90
10512;DHT22;5304;48.604;2.096;2023-07-31T16:14:49;20.30;99.90
10512;DHT22;5304;48.604;2.096;2023-07-31T16:17:33;20.40;99.90
10512;DHT22;5304;48.604;2.096;2023-07-31T16:20:18;20.30;99.90
10512;DHT22;5304;48.604;2.096;2023-07-31T16:23:02;20.30;99.90
10512;DHT22;5304;48.604;2.096;2023-07-31T16:25:46;20.20;99.90
10512;DHT22;5304;48.604;2.096;2023-07-31T16:28:31;20.30;99.90
10512;DHT22;5304;48.604;2.096;2023-07-31T16:31:15;20.30;99.90
10512;DHT22;5304;48.604;2.096;2023-07-31T16:33:59;20.30;99.90
10512;DHT22;5304;48.604;2.096;2023-07-31T16:36:43;20.30;99.90
10512;DHT22;5304;48.604;2.096;2023-07-31T16:39:28;20.10;99.90
10512;DHT22;5304;48.604;2.096;2023-07-31T16:42:12;20.10;99.90
10512;DHT22;5304;48.604;2.096;2023-07-31T16:44:57;20.00;99.90
10512;DHT22;5304;48.604;2.096;2023-07-31T16:47:41;19.90;99.90
10512;DHT22;5304;48.604;2.096;2023-07-31T16:50:25;19.90;99.90
10512;DHT22;5304;48.604;2.096;2023-07-31T16:53:10;19.70;99.90
10512;DHT22;5304;48.604;2.096;2023-07-31T16:55:54;19.60;99.90
10512;DHT22;5304;48.604;2.096;2023-07-31T16:58:38;19.50;99.90
10512;DHT22;5304;48.604;2.096;2023-07-31T17:01:22;19.50;99.90
10512;DHT22;5304;48.604;2.096;2023-07-31T17:04:09;19.40;99.90
10512;DHT22;5304;48.604;2.096;2023-07-31T17:06:53;19.40;99.90
10512;DHT22;5304;48.604;2.096;2023-07-31T17:09:38;19.30;99.90
10512;DHT22;5304;48.604;2.096;2023-07-31T17:12:22;19.20;99.90
10512;DHT22;5304;48.604;2.096;2023-07-31T17:15:07;19.20;99.90
10512;DHT22;5304;48.604;2.096;2023-07-31T17:17:52;19.20;99.90
10512;DHT22;5304;48.604;2.096;2023-07-31T17:20:38;19.20;99.90
10512;DHT22;5304;48.604;2.096;2023-07-31T17:23:22;19.10;99.90
10512;DHT22;5304;48.604;2.096;2023-07-31T17:26:06;19.00;99.90
10512;DHT22;5304;48.604;2.096;2023-07-31T17:28:55;18.90;99.90
10512;DHT22;5304;48.604;2.096;2023-07-31T17:31:40;18.90;99.90
10512;DHT22;5304;48.604;2.096;2023-07-31T17:34:25;18.90;99.90
10512;DHT22;5304;48.604;2.096;2023-07-31T17:37:09;18.90;99.90
10512;DHT22;5304;48.604;2.096;2023-07-31T17:39:53;19.00;99.90
10512;DHT22;5304;48.604;2.096;2023-07-31T17:42:38;18.90;99.90
10512;DHT22;5304;48.604;2.096;2023-07-31T17:45:22;18.90;99.90
10512;DHT22;5304;48.604;2.096;2023-07-31T17:48:06;19.00;99.90
10512;DHT22;5304;48.604;2.096;2023-07-31T17:50:53;19.00;99.90
10512;DHT22;5304;48.604;2.096;2023-07-31T17:53:37;18.90;99.90
10512;DHT22;5304;48.604;2.096;2023-07-31T17:56:21;19.00;99.90
10512;DHT22;5304;48.604;2.096;2023-07-31T17:59:06;19.00;99.90
10512;DHT22;5304;48.604;2.096;2023-07-31T18:01:50;19.00;99.90
10512;DHT22;5304;48.604;2.096;2023-07-31T18:04:34;19.00;99.90
10512;DHT22;5304;48.604;2.096;2023-07-31T18:07:19;19.00;99.90
10512;DHT22;5304;48.604;2.096;2023-07-31T18:10:03;19.10;99.90
10512;DHT22;5304;48.604;2.096;2023-07-31T18:12:48;19.10;99.90
10512;DHT22;5304;48.604;2.096;2023-07-31T18:15:32;19.10;99.90
10512;DHT22;5304;48.604;2.096;2023-07-31T18:18:17;19.00;99.90
10512;DHT22;5304;48.604;2.096;2023-07-31T18:21:01;19.00;99.90
10512;DHT22;5304;48.604;2.096;2023-07-31T18:23:46;19.00;99.90
10512;DHT22;5304;48.604;2.096;2023-07-31T18:26:30;19.00;99.90
10512;DHT22;5304;48.604;2.096;2023-07-31T18:29:14;19.10;99.90
10512;DHT22;5304;48.604;2.096;2023-07-31T18:31:58;19.00;99.90
10512;DHT22;5304;48.604;2.096;2023-07-31T18:34:42;19.10;99.90
10512;DHT22;5304;48.604;2.096;2023-07-31T18:37:27;19.10;99.90
10512;DHT22;5304;48.604;2.096;2023-07-31T18:40:11;19.00;99.90
10512;DHT22;5304;48.604;2.096;2023-07-31T18:42:56;18.90;99.90
10512;DHT22;5304;48.604;2.096;2023-07-31T18:45:41;18.90;99.90
10512;DHT22;5304;48.604;2.096;2023-07-31T18:48:25;18.90;99.90
10512;DHT22;5304;48.604;2.096;2023-07-31T18:51:09;18.90;99.90
10512;DHT22;5304;48.604;2.096;2023-07-31T18:53:53;18.80;99.90
10512;DHT22;5304;48.604;2.096;2023-07-31T18:56:37;18.80;99.90
10512;DHT22;5304;48.604;2.096;2023-07-31T18:59:22;18.80;99.90
10512;DHT22;5304;48.604;2.096;2023-07-31T19:02:06;18.80;99.90
10512;DHT22;5304;48.604;2.096;2023-07-31T19:04:51;18.80;99.90
10512;DHT22;5304;48.604;2.096;2023-07-31T19:07:35;18.80;99.90
10512;DHT22;5304;48.604;2.096;2023-07-31T19:10:20;18.70;99.90
10512;DHT22;5304;48.604;2.096;2023-07-31T19:13:04;18.80;99.90
10512;DHT22;5304;48.604;2.096;2023-07-31T19:15:51;18.80;99.90
10512;DHT22;5304;48.604;2.096;2023-07-31T19:18:37;18.70;99.90
10512;DHT22;5304;48.604;2.096;2023-07-31T19:21:21;18.80;99.90
10512;DHT22;5304;48.604;2.096;2023-07-31T19:24:06;18.80;99.90
10512;DHT22;5304;48.604;2.096;2023-07-31T19:26:50;18.80;99.90
10512;DHT22;5304;48.604;2.096;2023-07-31T19:29:34;18.80;99.90
10512;DHT22;5304;48.604;2.096;2023-07-31T19:32:19;18.80;99.90
10512;DHT22;5304;48.604;2.096;2023-07-31T19:35:03;18.70;99.90
10512;DHT22;5304;48.604;2.096;2023-07-31T19:37:48;18.80;99.90
10512;DHT22;5304;48.604;2.096;2023-07-31T19:40:33;18.70;99.90
10512;DHT22;5304;48.604;2.096;2023-07-31T19:43:17;18.70;99.90
10512;DHT22;5304;48.604;2.096;2023-07-31T19:46:02;18.70;99.90
10512;DHT22;5304;48.604;2.096;2023-07-31T19:48:46;18.70;99.90
10512;DHT22;5304;48.604;2.096;2023-07-31T19:51:31;18.80;99.90
10512;DHT22;5304;48.604;2.096;2023-07-31T19:54:15;18.70;99.90
10512;DHT22;5304;48.604;2.096;2023-07-31T19:57:00;18.70;99.90
10512;DHT22;5304;48.604;2.096;2023-07-31T19:59:45;18.60;99.90
10512;DHT22;5304;48.604;2.096;2023-07-31T20:02:29;18.60;99.90
10512;DHT22;5304;48.604;2.096;2023-07-31T20:05:14;18.60;99.90
10512;DHT22;5304;48.604;2.096;2023-07-31T20:07:58;18.70;99.90
10512;DHT22;5304;48.604;2.096;2023-07-31T20:10:43;18.70;99.90
10512;DHT22;5304;48.604;2.096;2023-07-31T20:13:29;18.70;99.90
10512;DHT22;5304;48.604;2.096;2023-07-31T20:16:20;18.70;99.90
10512;DHT22;5304;48.604;2.096;2023-07-31T20:19:04;18.60;99.90
10512;DHT22;5304;48.604;2.096;2023-07-31T20:21:48;18.60;99.90
10512;DHT22;5304;48.604;2.096;2023-07-31T20:24:33;18.50;99.90
10512;DHT22;5304;48.604;2.096;2023-07-31T20:27:20;18.50;99.90
10512;DHT22;5304;48.604;2.096;2023-07-31T20:30:05;18.50;99.90
10512;DHT22;5304;48.604;2.096;2023-07-31T20:32:50;18.50;99.90
10512;DHT22;5304;48.604;2.096;2023-07-31T20:35:35;18.40;99.90
